Time;durP1;ratioP1;P1;durP2;ratioP2;P2;SDS_P1;SDS_P2;PMS_P1;PMS_P2;Temp;Humidity;BMP_temperature;BMP_pressure;BME280_temperature;BME280_humidity;BME280_pressure;Samples;Min_cycle;Max_cycle;Signal;HPM_P1;HPM_P2
2022/08/14 06:53:18;;;;;;;10.77;4.03;;;;;;;29.34;39.00;100471.66;4963833;27;4113358;-54
2022/08/14 06:55:47;;;;;;;9.63;4.22;;;;;;;29.58;38.71;100441.31;5089826;28;20043;-53
2022/08/14 06:58:18;;;;;;;7.55;4.30;;;;;;;29.99;38.08;100470.50;5089455;28;20032;-54
2022/08/14 07:06:22;;;;;;;6.45;4.35;;;;;;;30.37;38.49;100465.31;5082680;28;20387;-53
2022/08/14 07:08:51;;;;;;;6.97;4.18;;;;;;;30.47;38.55;100472.16;5089753;28;20028;-49
2022/08/14 07:11:19;;;;;;;13.45;3.95;;;;;;;30.49;38.64;100480.94;5071679;28;21031;-52
2022/08/14 07:13:46;;;;;;;8.07;4.60;;;;;;;30.51;38.55;100487.06;5069802;28;20040;-53
2022/08/14 07:16:14;;;;;;;8.43;4.30;;;;;;;30.55;38.33;100491.41;5086439;28;20023;-50
2022/08/14 07:18:41;;;;;;;14.35;5.15;;;;;;;30.58;38.77;100507.22;5088771;28;20036;-52
2022/08/14 07:21:10;;;;;;;7.13;4.32;;;;;;;30.58;38.83;100498.41;5088396;28;20032;-53
2022/08/14 07:23:39;;;;;;;9.10;4.22;;;;;;;30.60;38.38;100504.56;5070651;28;20032;-51
2022/08/14 07:26:07;;;;;;;9.60;5.20;;;;;;;30.67;38.57;100515.88;5088809;28;20374;-53
2022/08/14 07:28:37;;;;;;;11.32;4.53;;;;;;;30.64;38.64;100515.94;5051161;28;20025;-52
2022/08/14 07:31:08;;;;;;;8.80;4.75;;;;;;;30.67;38.44;100515.88;5051295;28;20021;-50
2022/08/14 07:33:41;;;;;;;8.57;4.65;;;;;;;30.59;38.85;100511.59;5068129;28;20032;-53
2022/08/14 07:36:14;;;;;;;8.95;4.95;;;;;;;30.64;38.86;100521.22;5068980;28;20037;-53
2022/08/14 07:38:43;;;;;;;10.75;5.03;;;;;;;30.65;38.93;100528.28;5068576;28;20364;-52
2022/08/14 07:41:12;;;;;;;8.25;4.65;;;;;;;30.69;38.82;100517.56;5068131;28;20467;-52
2022/08/14 07:43:41;;;;;;;10.35;4.60;;;;;;;30.68;38.89;100513.19;5068376;28;20025;-52
2022/08/14 07:46:09;;;;;;;7.38;4.68;;;;;;;30.70;39.06;100508.72;5068253;28;20024;-50
2022/08/14 07:48:42;;;;;;;8.38;4.03;;;;;;;30.74;39.22;100502.47;5050804;28;20490;-49
2022/08/14 07:51:11;;;;;;;9.30;4.93;;;;;;;30.71;39.23;100510.47;5068084;28;20132;-52
2022/08/14 07:53:40;;;;;;;9.57;4.35;;;;;;;30.80;38.80;100503.19;5058145;28;20077;-52
2022/08/14 07:56:10;;;;;;;11.75;4.90;;;;;;;30.74;39.00;100497.16;5055270;28;20139;-52
2022/08/14 07:58:38;;;;;;;8.20;4.70;;;;;;;30.77;39.20;100499.75;5037256;28;20053;-50
2022/08/14 08:01:08;;;;;;;13.38;5.22;;;;;;;30.74;39.01;100499.81;5054910;28;20024;-52
2022/08/14 08:03:38;;;;;;;11.60;5.10;;;;;;;30.69;39.41;100491.09;5055034;28;20464;-50
2022/08/14 08:06:06;;;;;;;15.80;4.82;;;;;;;30.61;39.66;100498.34;5037340;28;20021;-52
2022/08/14 08:08:34;;;;;;;13.93;4.78;;;;;;;30.64;39.20;100490.31;5021119;28;20037;-49
2022/08/14 08:11:03;;;;;;;8.88;4.60;;;;;;;30.66;39.14;100482.38;5054833;28;20048;-50
2022/08/14 08:13:34;;;;;;;13.25;5.20;;;;;;;30.63;39.49;100467.41;5037297;28;20116;-55
2022/08/14 08:16:05;;;;;;;10.23;5.05;;;;;;;30.58;39.87;100450.78;5037268;28;20029;-51
2022/08/14 08:18:34;;;;;;;14.32;5.18;;;;;;;30.69;39.63;100464.63;5036944;28;20032;-52
2022/08/14 08:21:02;;;;;;;11.20;4.53;;;;;;;30.67;39.99;100457.63;5054498;28;20036;-53
2022/08/14 08:23:32;;;;;;;8.50;4.40;;;;;;;30.57;40.07;100460.47;5054371;28;20025;-53
2022/08/14 08:26:00;;;;;;;15.20;5.35;;;;;;;30.65;39.76;100452.34;5036892;28;20120;-53
2022/08/14 08:28:30;;;;;;;11.07;4.47;;;;;;;30.73;39.45;100468.06;5054501;28;20028;-51
2022/08/14 08:31:00;;;;;;;17.38;5.40;;;;;;;30.74;39.55;100460.09;5054339;28;20116;-53
2022/08/14 08:33:30;;;;;;;18.85;5.18;;;;;;;30.77;39.45;100444.16;5054333;28;20029;-55
2022/08/14 08:36:02;;;;;;;8.68;4.45;;;;;;;30.75;39.79;100459.19;5054579;28;20021;-53
2022/08/14 08:38:30;;;;;;;21.30;4.93;;;;;;;30.79;39.58;100435.25;5036810;28;20029;-53
2022/08/14 08:41:01;;;;;;;14.13;5.32;;;;;;;30.77;39.55;100430.91;5036788;28;20422;-52
2022/08/14 08:43:32;;;;;;;14.50;8.85;;;;;;;30.82;39.49;100427.25;5037852;28;20451;-49
2022/08/14 08:46:02;;;;;;;28.65;13.63;;;;;;;30.82;39.68;100437.84;5063058;28;20056;-54
2022/08/14 08:48:42;;;;;;;32.28;14.30;;;;;;;30.74;39.82;100428.31;5061508;28;20398;-53
2022/08/14 08:51:20;;;;;;;29.63;14.23;;;;;;;30.76;40.19;100415.03;5061008;28;20083;-52
2022/08/14 08:53:56;;;;;;;28.05;13.13;;;;;;;30.72;39.98;100416.91;5059930;28;20029;-52
2022/08/14 08:56:44;;;;;;;20.17;11.23;;;;;;;30.81;39.59;100404.31;5064707;28;20052;-51
2022/08/14 08:59:31;;;;;;;14.88;9.38;;;;;;;30.82;39.88;100400.78;5061936;28;20037;-49
2022/08/14 09:02:01;;;;;;;17.23;8.52;;;;;;;30.86;39.83;100392.69;5045961;28;20033;-51
2022/08/14 09:04:30;;;;;;;15.77;7.90;;;;;;;30.83;39.73;100391.91;5063136;28;20056;-53
2022/08/14 09:06:58;;;;;;;10.52;7.03;;;;;;;30.71;40.17;100366.63;5060813;28;20067;-52
2022/08/14 09:09:27;;;;;;;16.65;7.25;;;;;;;30.71;40.25;100372.78;5063328;28;20055;-54
2022/08/14 09:11:57;;;;;;;15.20;7.20;;;;;;;30.65;40.34;100378.22;5062466;28;20035;-52
2022/08/14 09:14:28;;;;;;;10.45;6.20;;;;;;;30.74;40.12;100382.44;5062501;28;20024;-51
2022/08/14 09:16:57;;;;;;;10.70;5.82;;;;;;;30.72;40.72;100369.25;5063072;28;20043;-53
2022/08/14 09:19:26;;;;;;;13.15;5.30;;;;;;;30.68;40.80;100370.22;5064040;28;20035;-54
2022/08/14 09:21:53;;;;;;;12.05;5.60;;;;;;;30.81;40.07;100368.13;5060246;28;20037;-54
2022/08/14 09:24:21;;;;;;;12.05;5.55;;;;;;;30.77;40.40;100356.75;5043969;28;20033;-54
2022/08/14 09:26:50;;;;;;;16.88;6.35;;;;;;;30.71;40.84;100348.97;5062498;28;20394;-50
2022/08/14 09:29:19;;;;;;;10.82;5.70;;;;;;;30.67;40.99;100339.34;5061115;28;20173;-54
2022/08/14 09:31:51;;;;;;;9.32;5.78;;;;;;;30.65;40.81;100338.53;5061965;28;20025;-53
2022/08/14 09:34:41;;;;;;;9.07;4.65;;;;;;;30.66;41.04;100329.69;5063235;28;20029;-52
2022/08/14 09:37:23;;;;;;;9.82;5.20;;;;;;;30.51;40.79;100309.75;5057045;28;20032;-53
2022/08/14 09:39:58;;;;;;;10.77;5.53;;;;;;;30.63;41.37;100332.38;5043694;28;20080;-53
2022/08/14 09:42:35;;;;;;;;;;;;;;;30.68;41.22;100337.59;5064360;28;20037;-53
2022/08/14 09:45:03;;;;;;;13.70;6.30;;;;;;;30.76;41.17;100338.25;5045984;28;19919;-53
2022/08/14 09:47:50;;;;;;;14.90;7.90;;;;;;;30.65;41.68;100348.25;5062100;28;20391;-52
2022/08/14 09:50:47;;;;;;;37.60;16.20;;;;;;;30.60;41.66;100361.63;5026686;28;20036;-51
2022/08/14 09:53:17;;;;;;;28.63;15.90;;;;;;;30.42;41.77;100329.38;5042319;28;20048;-53
2022/08/14 09:55:57;;;;;;;27.77;14.55;;;;;;;30.66;41.80;100372.03;5041067;28;20079;-53
2022/08/14 09:58:36;;;;;;;26.67;14.38;;;;;;;30.64;41.84;100376.50;5042482;28;20108;-53
2022/08/14 10:01:11;;;;;;;25.45;11.77;;;;;;;30.63;41.85;100380.03;5042878;28;20029;-49
2022/08/14 10:03:53;;;;;;;17.17;10.65;;;;;;;30.68;41.84;100388.75;5043722;28;20028;-53
2022/08/14 10:06:24;;;;;;;15.60;8.88;;;;;;;30.77;41.10;100393.84;5040929;28;20025;-53
2022/08/14 10:08:54;;;;;;;17.30;8.18;;;;;;;30.76;41.17;100404.44;5041416;28;20102;-52
2022/08/14 10:11:24;;;;;;;15.32;8.10;;;;;;;30.64;41.44;100394.16;5030540;28;20048;-52
2022/08/14 10:13:54;;;;;;;14.88;7.60;;;;;;;30.68;41.58;100396.69;5043423;28;20036;-53
2022/08/14 10:16:24;;;;;;;12.02;7.35;;;;;;;30.65;41.76;100402.06;5040118;28;20418;-53
2022/08/14 10:19:06;;;;;;;16.00;7.50;;;;;;;30.61;42.12;100411.00;5046690;28;20041;-54
2022/08/14 10:21:34;;;;;;;13.52;7.13;;;;;;;30.55;42.25;100417.28;5042803;28;20033;-52
2022/08/14 10:24:08;;;;;;;13.88;6.00;;;;;;;30.66;41.83;100419.69;5042003;28;20079;-53
2022/08/14 10:26:35;;;;;;;10.52;5.85;;;;;;;30.64;41.41;100425.94;5041896;28;20409;-54
2022/08/14 10:29:09;;;;;;;15.32;5.95;;;;;;;30.59;41.90;100434.84;5038831;28;20029;-53
2022/08/14 10:31:38;;;;;;;14.98;6.60;;;;;;;30.69;41.25;100429.34;5040835;28;20070;-53
2022/08/14 10:34:11;;;;;;;11.88;6.38;;;;;;;30.68;41.29;100438.19;5039448;28;20030;-54
2022/08/14 10:36:42;;;;;;;12.20;5.95;;;;;;;30.66;41.90;100430.28;5041968;28;20044;-53
2022/08/14 10:39:21;;;;;;;13.52;5.95;;;;;;;30.65;42.03;100419.72;5043202;28;20100;-53
2022/08/14 10:41:51;;;;;;;24.15;6.97;;;;;;;30.65;42.08;100414.44;5041706;28;20128;-54
2022/08/14 10:44:23;;;;;;;10.52;5.78;;;;;;;30.50;42.77;100418.28;5021464;28;20032;-54
2022/08/14 10:46:53;;;;;;;11.27;5.80;;;;;;;30.49;42.46;100419.19;5039858;28;20029;-53
2022/08/14 10:49:25;;;;;;;14.57;5.63;;;;;;;30.55;42.24;100424.38;5051256;28;20056;-53
2022/08/14 10:52:04;;;;;;;15.95;6.78;;;;;;;30.52;42.16;100427.94;5056168;28;20051;-54
2022/08/14 10:54:36;;;;;;;13.63;6.05;;;;;;;30.59;42.18;100444.56;5063017;28;20021;-54
2022/08/14 10:57:23;;;;;;;15.20;6.43;;;;;;;30.66;41.99;100445.31;5046883;28;20032;-52
2022/08/14 11:00:12;;;;;;;13.35;5.90;;;;;;;30.67;41.80;100439.09;5056973;28;20090;-55
2022/08/14 11:02:41;;;;;;;13.23;5.85;;;;;;;30.62;42.09;100436.53;5056306;28;20064;-56
2022/08/14 11:05:13;;;;;;;11.73;5.30;;;;;;;30.59;41.58;100431.34;5061585;28;20033;-55
2022/08/14 11:07:53;;;;;;;9.38;5.45;;;;;;;30.72;41.40;100435.44;5063098;28;20040;-56
2022/08/14 11:10:22;;;;;;;15.20;6.03;;;;;;;30.77;41.26;100449.44;5062055;28;20059;-54
2022/08/14 11:12:54;;;;;;;12.25;5.38;;;;;;;30.80;41.15;100443.19;5064242;28;20025;-56
2022/08/14 11:15:24;;;;;;;11.73;5.57;;;;;;;30.84;41.38;100454.56;5062045;28;20364;-55
2022/08/14 11:17:52;;;;;;;13.95;6.05;;;;;;;30.78;41.46;100450.28;5063466;28;20033;-52
2022/08/14 11:20:22;;;;;;;12.65;5.72;;;;;;;30.68;41.75;100452.28;5041243;28;20108;-55
2022/08/14 11:22:53;;;;;;;13.45;6.20;;;;;;;30.64;42.16;100434.72;5058869;28;20036;-54
2022/08/14 11:25:22;;;;;;;10.35;6.22;;;;;;;30.48;42.35;100450.09;5057756;28;20032;-56
2022/08/14 11:27:53;;;;;;;12.15;6.10;;;;;;;30.44;42.42;100446.63;5061953;28;20029;-56
2022/08/14 11:30:22;;;;;;;11.45;6.38;;;;;;;30.45;42.16;100461.59;5064483;28;20067;-57
2022/08/14 11:32:51;;;;;;;9.60;5.13;;;;;;;30.45;42.32;100455.44;5067939;28;20039;-56
2022/08/14 11:35:22;;;;;;;11.98;6.10;;;;;;;30.28;42.42;100450.53;5050500;28;20554;-55
2022/08/14 11:37:54;;;;;;;12.02;5.80;;;;;;;30.41;42.52;100453.75;5065693;28;20025;-54
2022/08/14 11:40:22;;;;;;;10.70;5.43;;;;;;;30.22;42.83;100458.59;5065386;28;20040;-57
2022/08/14 11:42:55;;;;;;;10.20;5.43;;;;;;;30.27;42.88;100467.31;5066242;28;20070;-57
2022/08/14 11:45:24;;;;;;;20.33;6.55;;;;;;;30.22;42.97;100474.47;5051636;28;20078;-54
2022/08/14 11:47:55;;;;;;;12.95;5.80;;;;;;;30.08;42.86;100466.81;5063499;28;20135;-63
2022/08/14 11:50:25;;;;;;;12.23;5.40;;;;;;;29.91;43.40;100469.78;5045235;28;20035;-54
2022/08/14 11:52:55;;;;;;;13.30;5.78;;;;;;;30.01;42.98;100468.72;5044646;28;20041;-54
2022/08/14 11:55:25;;;;;;;12.23;5.53;;;;;;;30.11;42.64;100477.34;5043803;28;20364;-55
2022/08/14 11:58:07;;;;;;;11.10;5.38;;;;;;;30.10;42.65;100460.59;5061629;28;20060;-52
2022/08/14 12:00:45;;;;;;;10.20;5.15;;;;;;;30.27;41.95;100454.94;5044494;28;20495;-55
2022/08/14 12:03:13;;;;;;;11.75;5.65;;;;;;;30.08;42.04;100438.59;5062164;28;20035;-54
2022/08/14 12:05:41;;;;;;;11.27;5.45;;;;;;;30.33;41.43;100434.56;5064960;28;20088;-52
2022/08/14 12:08:10;;;;;;;12.30;5.50;;;;;;;30.12;42.11;100440.25;5066172;28;20024;-53
2022/08/14 12:10:40;;;;;;;12.73;5.82;;;;;;;29.98;42.54;100443.22;5064370;28;20032;-56
2022/08/14 12:13:19;;;;;;;13.15;5.15;;;;;;;30.09;42.37;100445.63;5065311;28;20475;-54
2022/08/14 12:15:56;;;;;;;15.75;5.32;;;;;;;30.17;42.23;100450.75;5065358;28;20078;-54
2022/08/14 12:18:35;;;;;;;11.65;5.22;;;;;;;30.16;42.31;100444.59;5067500;28;20024;-52
2022/08/14 12:21:14;;;;;;;10.68;5.07;;;;;;;30.33;41.78;100430.13;5057576;28;20478;-55
2022/08/14 12:23:42;;;;;;;11.18;5.80;;;;;;;30.47;41.22;100445.69;5046681;28;20028;-54
2022/08/14 12:26:16;;;;;;;10.02;5.20;;;;;;;30.43;41.66;100447.53;5063195;28;20686;-54
2022/08/14 12:28:45;;;;;;;10.10;5.18;;;;;;;30.39;41.50;100456.44;5063823;28;20123;-53
2022/08/14 12:31:18;;;;;;;10.10;5.43;;;;;;;30.30;42.16;100439.00;5061511;28;20021;-53
2022/08/14 12:34:07;;;;;;;14.98;5.07;;;;;;;30.04;42.69;100441.31;5061300;28;20028;-55
2022/08/14 12:36:35;;;;;;;14.73;6.30;;;;;;;30.03;42.74;100455.47;5042251;28;20035;-55
2022/08/14 12:39:05;;;;;;;13.50;5.78;;;;;;;30.06;42.99;100455.38;5059673;28;20024;-54
2022/08/14 12:41:34;;;;;;;11.98;5.53;;;;;;;30.25;42.49;100448.81;5059818;28;20078;-54
2022/08/14 12:44:04;;;;;;;11.38;6.32;;;;;;;30.06;42.76;100450.97;5062515;28;20021;-53
2022/08/14 12:46:39;;;;;;;14.48;6.40;;;;;;;30.00;42.91;100465.22;5060058;28;20087;-54
2022/08/14 12:49:15;;;;;;;13.85;6.90;;;;;;;29.99;42.73;100460.81;5063910;28;20032;-53
2022/08/14 12:51:43;;;;;;;13.63;6.80;;;;;;;29.83;42.81;100446.13;5048214;28;20401;-55
2022/08/14 12:54:16;;;;;;;14.35;5.93;;;;;;;30.04;42.49;100460.72;5036101;28;20031;-54
2022/08/14 12:56:45;;;;;;;11.45;5.72;;;;;;;30.15;41.91;100455.22;5069131;28;20016;-56
2022/08/14 12:59:13;;;;;;;12.30;5.75;;;;;;;29.87;42.45;100450.44;5066972;28;20036;-55
2022/08/14 13:01:41;;;;;;;12.13;6.47;;;;;;;29.96;42.67;100467.94;5042133;28;20025;-52
2022/08/14 13:04:12;;;;;;;13.75;6.07;;;;;;;30.05;42.21;100473.03;5062443;28;20369;-54
2022/08/14 13:06:46;;;;;;;12.73;5.68;;;;;;;30.01;42.48;100466.97;5067731;28;20021;-55
2022/08/14 13:09:15;;;;;;;13.80;5.90;;;;;;;30.12;41.62;100466.72;5058398;28;20086;-54
2022/08/14 13:11:53;;;;;;;14.52;5.47;;;;;;;30.21;41.98;100470.06;5061224;28;20032;-55
2022/08/14 13:14:24;;;;;;;10.10;5.20;;;;;;;30.27;41.38;100477.91;5059455;28;20021;-56
2022/08/14 13:16:56;;;;;;;10.35;5.25;;;;;;;30.34;41.07;100478.63;5062561;28;20059;-55
2022/08/14 13:19:25;;;;;;;11.15;5.45;;;;;;;30.31;41.25;100491.00;5061209;28;20016;-53
2022/08/14 13:21:54;;;;;;;7.63;4.70;;;;;;;30.43;40.50;100481.94;5059501;28;20033;-55
2022/08/14 13:24:22;;;;;;;13.30;5.22;;;;;;;30.50;40.93;100489.72;5043851;28;20451;-53
2022/08/14 13:26:54;;;;;;;7.50;4.45;;;;;;;30.57;40.08;100486.09;5062067;28;20027;-54
2022/08/14 13:29:23;;;;;;;8.93;3.85;;;;;;;30.49;40.52;100488.00;5062059;28;20024;-55
2022/08/14 13:31:53;;;;;;;9.52;5.30;;;;;;;30.32;40.72;100491.88;5060371;28;20026;-54
2022/08/14 13:34:23;;;;;;;12.63;5.05;;;;;;;30.43;40.63;100492.53;5043468;28;20037;-54
2022/08/14 13:36:52;;;;;;;6.32;4.55;;;;;;;30.40;40.22;100494.34;5061295;28;20048;-55
2022/08/14 13:39:21;;;;;;;14.00;4.63;;;;;;;30.04;41.46;100497.75;5043633;28;20032;-54
2022/08/14 13:41:49;;;;;;;9.52;4.38;;;;;;;30.26;40.59;100500.81;5061837;28;20029;-55
2022/08/14 13:44:19;;;;;;;8.90;4.45;;;;;;;30.05;41.36;100507.44;5059248;28;20107;-54
2022/08/14 13:46:48;;;;;;;11.25;4.75;;;;;;;30.13;41.04;100494.03;5042324;28;20020;-53
2022/08/14 13:49:17;;;;;;;9.55;4.40;;;;;;;29.77;41.83;100484.16;5061153;28;20079;-54
2022/08/14 13:51:48;;;;;;;11.57;4.82;;;;;;;29.85;41.93;100503.38;5061979;28;20053;-54
2022/08/14 13:54:20;;;;;;;10.60;4.35;;;;;;;30.14;40.93;100507.22;5063142;28;20017;-53
2022/08/14 13:56:48;;;;;;;6.55;4.05;;;;;;;30.22;41.09;100493.84;5062036;28;20036;-54
2022/08/14 13:59:15;;;;;;;8.55;4.10;;;;;;;30.35;40.75;100489.16;5051110;28;20120;-54
2022/08/14 14:01:44;;;;;;;9.35;3.90;;;;;;;30.22;41.00;100498.28;5071672;28;20024;-52
2022/08/14 14:04:15;;;;;;;10.32;4.38;;;;;;;30.25;41.15;100501.72;5068309;28;20096;-53
2022/08/14 14:06:48;;;;;;;8.93;4.40;;;;;;;30.29;40.83;100508.69;5071774;28;20429;-52
2022/08/14 14:09:16;;;;;;;12.98;5.70;;;;;;;30.26;40.75;100500.81;5044678;28;20024;-53
2022/08/14 14:11:44;;;;;;;10.70;4.68;;;;;;;30.35;40.41;100502.41;5042146;28;20024;-53
2022/08/14 14:14:12;;;;;;;12.27;4.68;;;;;;;30.36;40.78;100513.88;5044656;28;20082;-55
2022/08/14 14:16:40;;;;;;;8.93;4.97;;;;;;;30.39;40.63;100519.97;5063029;28;20095;-55
2022/08/14 14:19:08;;;;;;;10.98;5.18;;;;;;;30.33;40.81;100520.06;5063107;28;20022;-54
2022/08/14 14:21:35;;;;;;;11.45;5.35;;;;;;;30.51;40.51;100518.84;5042022;28;20032;-53
2022/08/14 14:24:04;;;;;;;12.25;5.10;;;;;;;30.44;40.57;100526.03;5062709;28;20411;-54
2022/08/14 14:26:32;;;;;;;11.27;5.50;;;;;;;30.52;40.71;100530.28;5062049;28;20025;-54
2022/08/14 14:29:00;;;;;;;8.27;4.80;;;;;;;30.55;40.66;100527.59;5060601;28;20047;-55
2022/08/14 14:31:29;;;;;;;8.57;4.97;;;;;;;30.51;40.53;100523.25;5043123;28;20029;-55
2022/08/14 14:34:00;;;;;;;11.63;4.68;;;;;;;30.56;40.77;100522.25;5059869;28;20028;-53
2022/08/14 14:36:30;;;;;;;13.18;5.30;;;;;;;30.50;40.73;100526.78;5043192;28;20060;-53
2022/08/14 14:39:04;;;;;;;9.27;5.57;;;;;;;30.45;40.62;100525.09;5060902;28;20055;-52
2022/08/14 14:41:35;;;;;;;9.00;4.90;;;;;;;30.51;40.34;100518.84;5060691;28;20032;-55
2022/08/14 14:44:05;;;;;;;10.00;4.88;;;;;;;30.46;40.76;100512.75;5061786;28;20035;-52
2022/08/14 14:46:36;;;;;;;9.77;5.47;;;;;;;30.51;40.49;100517.94;5060785;28;20545;-53
2022/08/14 14:49:06;;;;;;;17.58;6.43;;;;;;;30.25;40.89;100509.66;5060140;28;20043;-55
2022/08/14 14:51:35;;;;;;;12.63;6.20;;;;;;;30.17;41.81;100512.47;5060466;28;20053;-53
2022/08/14 14:54:03;;;;;;;11.77;5.85;;;;;;;30.11;42.03;100506.44;5061235;28;20070;-53
2022/08/14 14:56:31;;;;;;;13.07;7.30;;;;;;;30.20;42.06;100511.50;5060069;28;20023;-54
2022/08/14 14:58:58;;;;;;;17.00;6.80;;;;;;;30.43;41.13;100503.13;5061201;28;20032;-53
2022/08/14 15:01:26;;;;;;;18.98;7.22;;;;;;;30.46;41.35;100508.31;5059096;28;20491;-53
2022/08/14 15:03:55;;;;;;;19.58;7.20;;;;;;;30.46;41.55;100510.09;5029921;28;20489;-55
2022/08/14 15:06:25;;;;;;;15.55;7.00;;;;;;;30.44;41.72;100507.50;5061544;28;20036;-53
2022/08/14 15:08:54;;;;;;;14.23;6.47;;;;;;;30.59;41.75;100510.75;5043694;28;20039;-54
2022/08/14 15:11:22;;;;;;;14.75;6.38;;;;;;;30.66;41.15;100500.91;5038815;28;20025;-54
2022/08/14 15:13:49;;;;;;;17.77;7.10;;;;;;;30.46;42.13;100505.66;5060942;28;20071;-53
2022/08/14 15:16:18;;;;;;;13.88;6.68;;;;;;;30.53;42.06;100505.56;5064741;28;20079;-54
2022/08/14 15:18:47;;;;;;;13.98;6.97;;;;;;;30.68;41.75;100501.72;5062980;28;20029;-53
2022/08/14 15:21:15;;;;;;;12.43;6.20;;;;;;;30.81;41.30;100497.00;5039151;28;20029;-53
2022/08/14 15:23:42;;;;;;;16.30;6.82;;;;;;;30.69;41.58;100474.34;5058313;28;20391;-54
2022/08/14 15:26:11;;;;;;;14.23;6.20;;;;;;;30.76;41.64;100489.19;5067503;28;20066;-55
2022/08/14 15:28:39;;;;;;;16.08;7.07;;;;;;;30.75;41.40;100485.66;5068162;28;20539;-55
2022/08/14 15:31:06;;;;;;;13.52;6.88;;;;;;;30.91;41.01;100488.81;5070318;28;20370;-55
2022/08/14 15:34:15;;;;;;;13.52;6.43;;;;;;;30.95;41.10;100483.44;5069922;28;20036;-55
2022/08/14 15:36:21;;;;;;;11.73;5.88;;;;;;;30.88;41.35;100480.06;5061455;28;20128;-55
2022/08/14 15:38:50;;;;;;;14.20;5.97;;;;;;;30.90;41.02;100481.78;5034778;28;20494;-55
2022/08/14 15:41:17;;;;;;;11.27;5.05;;;;;;;30.96;40.92;100474.59;5069904;28;20390;-53
2022/08/14 15:43:44;;;;;;;12.48;5.50;;;;;;;30.80;41.13;100480.25;5066030;28;20029;-55
2022/08/14 15:46:12;;;;;;;15.38;5.72;;;;;;;30.77;40.75;100478.56;5046945;28;20391;-54
2022/08/14 15:48:39;;;;;;;13.35;6.03;;;;;;;30.27;42.57;100472.59;5070199;28;20052;-53
2022/08/14 15:51:06;;;;;;;10.88;5.88;;;;;;;30.20;42.58;100471.84;5051474;28;20024;-56
2022/08/14 15:53:33;;;;;;;11.00;5.35;;;;;;;30.16;42.57;100470.19;5070501;28;20032;-55
2022/08/14 15:56:01;;;;;;;12.05;6.20;;;;;;;30.08;42.55;100467.69;5061211;28;20040;-53
2022/08/14 15:58:29;;;;;;;8.98;4.88;;;;;;;30.08;42.52;100466.81;5055500;28;20059;-53
2022/08/14 16:01:39;;;;;;;9.63;5.05;;;;;;;30.39;42.03;100472.31;5054837;28;20079;-54
2022/08/14 16:03:43;;;;;;;11.30;4.90;;;;;;;30.41;41.95;100470.53;5063856;28;20056;-54
2022/08/14 16:06:12;;;;;;;9.60;5.10;;;;;;;30.38;42.00;100467.06;5051683;28;20032;-54
2022/08/14 16:08:39;;;;;;;7.43;4.72;;;;;;;30.21;42.55;100464.78;5070047;28;20111;-53
2022/08/14 16:11:08;;;;;;;8.25;4.47;;;;;;;30.40;41.89;100463.47;5067703;28;20032;-55
2022/08/14 16:13:41;;;;;;;11.15;5.20;;;;;;;29.75;43.38;100458.63;5070670;28;20036;-55
2022/08/14 16:16:12;;;;;;;9.87;4.27;;;;;;;29.85;42.48;100436.41;5027572;28;20103;-56
2022/08/14 16:18:40;;;;;;;12.05;5.40;;;;;;;29.99;42.26;100455.53;5061933;28;20036;-51
2022/08/14 16:21:15;;;;;;;5.90;4.53;;;;;;;30.13;42.20;100462.31;5035376;28;20021;-53
2022/08/14 16:23:44;;;;;;;11.10;5.35;;;;;;;30.07;41.92;100460.66;5044693;28;20029;-57
2022/08/14 16:26:13;;;;;;;5.18;4.00;;;;;;;30.26;41.73;100462.91;5062775;28;20382;-57
2022/08/14 16:28:41;;;;;;;6.97;4.85;;;;;;;30.03;41.92;100466.06;5056627;28;20455;-56
2022/08/14 16:31:40;;;;;;;6.90;5.10;;;;;;;29.95;42.81;100471.47;5067874;28;20032;-54
2022/08/14 16:34:08;;;;;;;7.50;4.90;;;;;;;30.09;41.81;100472.09;5063758;28;20027;-57
2022/08/14 16:36:36;;;;;;;7.40;4.35;;;;;;;30.22;41.57;100477.13;5060179;28;20033;-56
2022/08/14 16:39:07;;;;;;;6.90;4.47;;;;;;;30.35;41.17;100469.78;5027704;28;20055;-54
2022/08/14 16:41:35;;;;;;;8.23;4.50;;;;;;;30.23;41.70;100473.56;5062489;28;20090;-55
2022/08/14 16:44:06;;;;;;;5.38;3.95;;;;;;;30.35;40.99;100475.09;5044317;28;20449;-54
2022/08/14 16:46:37;;;;;;;5.45;4.00;;;;;;;30.49;40.95;100478.28;5062785;28;20120;-54
2022/08/14 16:49:09;;;;;;;9.55;4.88;;;;;;;30.40;40.63;100471.44;5062601;28;20029;-56
2022/08/14 16:51:38;;;;;;;7.90;4.45;;;;;;;30.49;40.97;100475.66;5066725;28;20057;-55
2022/08/14 16:54:09;;;;;;;7.88;4.45;;;;;;;30.47;40.75;100466.88;5056198;28;20029;-54
2022/08/14 16:56:37;;;;;;;8.38;4.88;;;;;;;30.45;40.72;100471.31;5074137;28;20451;-54
2022/08/14 16:59:08;;;;;;;10.88;4.53;;;;;;;30.58;40.28;100477.25;5073902;28;20047;-53
2022/08/14 17:01:38;;;;;;;7.22;4.05;;;;;;;30.41;40.54;100480.22;5073502;28;20052;-53
2022/08/14 17:04:10;;;;;;;7.25;4.22;;;;;;;30.42;40.31;100474.91;5073625;28;20076;-54
2022/08/14 17:06:59;;;;;;;8.90;4.65;;;;;;;30.34;40.79;100484.78;5073797;28;20024;-54
2022/08/14 17:09:30;;;;;;;8.35;4.85;;;;;;;30.31;40.21;100480.44;5056316;28;20029;-55
2022/08/14 17:12:01;;;;;;;9.63;5.05;;;;;;;30.33;40.22;100479.53;5073280;28;20104;-54
2022/08/14 17:14:49;;;;;;;7.85;4.53;;;;;;;30.34;40.20;100465.41;5073518;28;20024;-54
2022/08/14 17:17:19;;;;;;;6.80;4.68;;;;;;;30.12;40.45;100457.91;5073393;28;20016;-54
2022/08/14 17:19:48;;;;;;;7.78;4.97;;;;;;;30.21;40.28;100460.34;5073269;28;20490;-53
2022/08/14 17:22:17;;;;;;;6.95;4.78;;;;;;;30.16;40.62;100454.31;5055272;28;20071;-55
2022/08/14 17:24:46;;;;;;;5.07;4.25;;;;;;;30.11;40.40;100445.59;5073035;28;20403;-54
2022/08/14 17:27:16;;;;;;;6.47;4.38;;;;;;;30.10;40.35;100444.72;5072861;28;20020;-54
2022/08/14 17:29:45;;;;;;;7.22;4.15;;;;;;;30.14;40.09;100442.88;5038963;28;20025;-54
2022/08/14 17:32:15;;;;;;;6.75;4.15;;;;;;;30.21;40.15;100441.84;5073239;28;20017;-53
2022/08/14 17:34:47;;;;;;;8.45;4.90;;;;;;;30.32;39.75;100441.59;5055571;28;20498;-54
2022/08/14 17:37:36;;;;;;;8.98;4.47;;;;;;;30.32;39.75;100441.59;5073058;28;20024;-54
2022/08/14 17:40:16;;;;;;;7.07;4.55;;;;;;;30.36;39.21;100445.06;5064634;28;20364;-53
2022/08/14 17:42:46;;;;;;;7.35;4.45;;;;;;;30.24;40.05;100446.22;5072900;28;20044;-54
2022/08/14 17:45:19;;;;;;;7.35;5.85;;;;;;;30.11;40.28;100445.59;5072842;28;20033;-54
2022/08/14 17:47:48;;;;;;;5.63;4.95;;;;;;;30.12;39.61;100437.59;5072861;28;20463;-54
2022/08/14 17:50:17;;;;;;;8.70;4.75;;;;;;;30.12;39.81;100437.59;5054985;28;20024;-53
2022/08/14 17:52:46;;;;;;;5.70;4.68;;;;;;;30.13;39.97;100443.78;5054980;28;20052;-54
2022/08/14 17:55:15;;;;;;;5.38;4.35;;;;;;;30.12;39.61;100428.81;5073100;28;20028;-54
2022/08/14 17:57:43;;;;;;;8.43;4.95;;;;;;;30.17;39.57;100429.59;5055225;28;20020;-53
2022/08/14 18:00:15;;;;;;;8.32;5.40;;;;;;;30.24;39.45;100430.34;5055767;28;20033;-53
2022/08/14 18:02:44;;;;;;;9.77;5.22;;;;;;;30.26;39.27;100428.53;5072843;28;20024;-53
2022/08/14 18:05:12;;;;;;;8.73;5.25;;;;;;;30.37;39.45;100423.84;5072613;28;20029;-53
2022/08/14 18:07:41;;;;;;;9.85;4.57;;;;;;;30.22;39.65;100411.81;5054920;28;20050;-53
2022/08/14 18:10:10;;;;;;;6.25;4.72;;;;;;;30.13;39.98;100425.28;5038360;28;20048;-54
2022/08/14 18:12:39;;;;;;;10.77;5.22;;;;;;;30.08;39.65;100421.84;5072395;28;20036;-54
2022/08/14 18:15:15;;;;;;;8.02;4.88;;;;;;;30.04;39.97;100426.34;5072462;28;20027;-54
2022/08/14 18:17:45;;;;;;;7.85;5.03;;;;;;;29.92;40.04;100414.19;5072812;28;20024;-54
2022/08/14 18:20:14;;;;;;;10.68;5.55;;;;;;;29.77;40.39;100420.69;5054836;28;20107;-54
2022/08/14 18:22:43;;;;;;;8.57;4.80;;;;;;;30.03;39.56;100415.81;5072518;28;20028;-52
2022/08/14 18:25:11;;;;;;;12.07;5.50;;;;;;;30.09;39.70;100420.94;5054891;28;20021;-54
2022/08/14 18:27:43;;;;;;;7.32;4.63;;;;;;;30.09;39.35;100419.19;5072464;28;20522;-55
2022/08/14 18:30:12;;;;;;;6.95;4.32;;;;;;;29.96;39.54;100426.50;5072563;28;20063;-54
2022/08/14 18:32:43;;;;;;;7.95;5.28;;;;;;;29.91;39.75;100430.97;5054581;28;20032;-53
2022/08/14 18:35:16;;;;;;;7.45;4.75;;;;;;;29.96;39.22;100425.63;5072110;28;20056;-52